Time;durP1;ratioP1;P1;durP2;ratioP2;P2;SDS_P1;SDS_P2;PMS_P1;PMS_P2;Temp;Humidity;BMP_temperature;BMP_pressure;BME280_temperature;BME280_humidity;BME280_pressure;Samples;Min_cycle;Max_cycle;Signal;HPM_P1;HPM_P2
2022/06/04 00:02:13;;;;;;;19.77;13.50;;;17.20;74.80;;;13.55;92.85;95562.50;5045922;28;20032;-53
2022/06/04 00:04:42;;;;;;;18.02;13.10;;;17.20;74.90;;;13.56;93.63;95570.22;5054531;28;20021;-53
2022/06/04 00:07:08;;;;;;;18.13;12.30;;;17.20;75.10;;;13.57;93.57;95574.50;5055875;28;20025;-53
2022/06/04 00:09:37;;;;;;;21.58;11.52;;;17.20;75.00;;;13.58;93.00;95578.78;5054380;28;20036;-53
2022/06/04 00:17:34;;;;;;;19.23;12.88;;;17.20;75.10;;;13.59;93.51;95585.72;5055630;28;20044;-52
2022/06/04 00:20:04;;;;;;;21.13;11.00;;;17.20;75.20;;;13.60;93.22;95579.28;5055511;28;20021;-52
2022/06/04 00:22:36;;;;;;;13.85;10.63;;;17.20;75.30;;;13.61;93.43;95580.09;5055488;28;20475;-55
2022/06/04 00:25:01;;;;;;;19.63;9.63;;;17.20;75.30;;;13.60;93.25;95573.94;5038473;28;20399;-52
2022/06/04 00:27:30;;;;;;;13.25;9.20;;;17.20;75.30;;;13.59;93.00;95566.97;5054215;28;20044;-56
2022/06/04 00:30:02;;;;;;;15.07;8.30;;;17.20;75.30;;;13.58;93.25;95560.03;5055399;28;20032;-54
2022/06/04 00:32:34;;;;;;;11.85;8.18;;;17.20;75.40;;;13.59;93.05;95558.16;5055721;28;20036;-57
2022/06/04 00:35:05;;;;;;;11.55;8.13;;;17.20;75.50;;;13.59;93.10;95564.31;5054187;28;20556;-57
2022/06/04 00:37:35;;;;;;;14.10;7.43;;;17.20;75.40;;;13.57;93.08;95555.78;5037473;28;20033;-56
2022/06/04 00:40:03;;;;;;;12.35;8.07;;;17.30;75.50;;;13.57;93.01;95554.94;5053936;28;20025;-57
2022/06/04 00:42:29;;;;;;;13.75;8.55;;;17.20;75.30;;;13.58;93.34;95543.97;5055230;28;20112;-54
2022/06/04 00:45:32;;;;;;;20.02;10.82;;;17.30;75.40;;;13.65;93.73;95543.63;5055041;28;20068;-52
2022/06/04 00:47:59;;;;;;;15.52;9.60;;;17.30;75.70;;;13.65;93.59;95543.63;5055127;28;20021;-55
2022/06/04 00:50:27;;;;;;;13.90;9.85;;;17.20;75.40;;;13.72;93.54;95551.31;5053788;28;20124;-56
2022/06/04 00:52:55;;;;;;;17.70;11.85;;;17.30;75.50;;;13.74;93.68;95551.84;5053804;28;20021;-56
2022/06/04 00:55:26;;;;;;;20.02;13.20;;;17.30;75.60;;;13.74;93.67;95552.63;5053740;28;20044;-57
2022/06/04 00:58:13;;;;;;;21.23;14.32;;;17.30;75.60;;;13.73;94.33;95545.69;5053353;28;20025;-54
2022/06/04 01:00:47;;;;;;;25.30;15.48;;;17.30;75.80;;;13.79;94.36;95533.84;5043807;28;20407;-53
2022/06/04 01:03:44;;;;;;;27.27;16.20;;;17.40;75.80;;;13.84;94.40;95549.03;5053412;28;20021;-56
2022/06/04 01:06:36;;;;;;;31.02;18.90;;;17.40;76.00;;;13.91;94.66;95568.22;5054697;28;20025;-54
2022/06/04 01:09:19;;;;;;;40.78;22.02;;;17.40;76.10;;;14.01;94.86;95584.19;5053451;28;20479;-53
2022/06/04 01:12:17;;;;;;;25.17;15.50;;;17.40;76.10;;;14.03;94.57;95583.91;5054777;28;20044;-52
2022/06/04 01:15:20;;;;;;;23.80;15.00;;;17.50;76.00;;;14.01;94.12;95596.81;5054441;28;20118;-55
2022/06/04 01:17:59;;;;;;;25.90;15.27;;;17.50;76.20;;;13.98;93.89;95600.06;5053243;28;20120;-54
2022/06/04 01:21:06;;;;;;;27.58;15.90;;;17.50;76.00;;;13.96;93.94;95591.50;5054455;28;20037;-55
2022/06/04 01:24:18;;;;;;;45.45;25.05;;;17.50;75.90;;;13.98;94.89;95587.44;5054686;28;20025;-57
2022/06/04 01:27:07;;;;;;;46.63;27.52;;;17.50;76.10;;;14.08;95.87;95603.41;5054380;28;20036;-54
2022/06/04 01:29:50;;;;;;;54.10;31.20;;;17.50;76.40;;;14.18;96.17;95599.78;5054325;28;20024;-52
2022/06/04 01:32:27;;;;;;;50.50;30.17;;;17.60;76.90;;;14.17;95.74;95586.69;5054279;28;20021;-52
2022/06/04 01:35:31;;;;;;;66.95;34.83;;;17.60;76.80;;;14.27;96.36;95597.28;5053404;28;20025;-52
2022/06/04 01:38:40;;;;;;;65.18;32.38;;;17.70;77.20;;;14.30;95.87;95605.53;5034777;28;20442;-54
2022/06/04 01:41:34;;;;;;;79.25;32.10;;;17.70;76.90;;;14.23;95.70;95612.34;5049897;28;20057;-56
2022/06/04 01:44:12;;;;;;;64.18;29.55;;;17.80;76.90;;;14.21;95.35;95617.19;5022302;28;20136;-57
2022/06/04 01:46:55;;;;;;;60.55;30.25;;;17.70;76.60;;;14.22;94.99;95616.88;5053116;28;20029;-57
2022/06/04 01:49:50;;;;;;;53.08;26.55;;;17.70;76.60;;;14.20;94.52;95620.97;5053056;28;20059;-56
2022/06/04 01:52:34;;;;;;;58.40;28.70;;;17.80;76.50;;;14.20;94.40;95629.00;5036325;28;20037;-57
2022/06/04 01:55:22;;;;;;;55.95;28.23;;;17.70;76.30;;;14.16;94.83;95615.34;5037557;28;20159;-54
2022/06/04 01:58:06;;;;;;;46.70;26.40;;;17.80;76.40;;;14.16;94.75;95607.31;5052646;28;20025;-52
2022/06/04 02:00:53;;;;;;;51.03;26.83;;;17.80;76.40;;;14.20;94.75;95616.38;5042524;28;20041;-53
2022/06/04 02:03:37;;;;;;;53.92;27.75;;;17.80;76.30;;;14.22;94.51;95610.72;5052154;28;20032;-57
2022/06/04 02:06:24;;;;;;;53.25;27.30;;;17.80;76.20;;;14.23;94.50;95617.72;5053721;28;20472;-52
2022/06/04 02:09:01;;;;;;;47.67;25.25;;;17.80;76.20;;;14.24;94.57;95612.03;5051829;28;20456;-57
2022/06/04 02:11:30;;;;;;;47.78;25.13;;;17.80;76.20;;;14.23;94.44;95598.94;5052523;28;20029;-56
2022/06/04 02:14:03;;;;;;;49.10;25.58;;;17.80;76.10;;;14.24;94.81;95595.19;5052617;28;20025;-52
2022/06/04 02:16:31;;;;;;;42.75;24.98;;;17.80;76.10;;;14.25;94.95;95576.13;5053536;28;20029;-57
2022/06/04 02:18:59;;;;;;;52.85;27.33;;;17.80;76.20;;;14.27;95.31;95587.34;5034504;28;20025;-55
2022/06/04 02:21:27;;;;;;;52.05;26.58;;;17.90;76.40;;;14.32;95.17;95605.25;5032288;28;20040;-56
2022/06/04 02:23:55;;;;;;;49.92;26.73;;;17.90;76.50;;;14.34;95.00;95592.38;5047470;28;20036;-55
2022/06/04 02:26:23;;;;;;;49.28;25.50;;;17.90;76.50;;;14.39;95.00;95591.50;5052209;28;20041;-53
2022/06/04 02:28:50;;;;;;;43.83;24.88;;;18.00;76.50;;;14.39;94.82;95586.16;5052077;28;20551;-50
2022/06/04 02:31:54;;;;;;;46.88;23.77;;;18.00;76.50;;;14.37;94.94;95577.59;5046746;28;20033;-52
2022/06/04 02:34:46;;;;;;;49.25;23.92;;;18.00;76.60;;;14.44;96.31;95514.50;4993064;28;20500;-55
2022/06/04 02:37:27;;;;;;;25.15;18.08;;;18.00;77.50;;;14.56;96.87;95525.63;5039644;28;20056;-57
2022/06/04 02:40:26;;;;;;;32.10;20.60;;;18.10;77.10;;;14.68;96.37;95567.28;5022741;28;20033;-56
2022/06/04 02:43:08;;;;;;;33.40;18.63;;;18.10;77.20;;;14.71;95.84;95574.75;5051680;28;20166;-55
2022/06/04 02:45:44;;;;;;;28.02;18.05;;;18.20;77.10;;;14.73;95.33;95592.13;5051485;28;20076;-54
2022/06/04 02:48:24;;;;;;;22.50;14.32;;;18.30;77.20;;;14.72;95.16;95611.97;5049949;28;20033;-56
2022/06/04 02:50:58;;;;;;;23.65;14.07;;;18.30;77.00;;;14.73;95.09;95602.06;5046065;28;20033;-51
2022/06/04 02:53:38;;;;;;;24.00;15.27;;;18.30;76.90;;;14.73;95.11;95577.94;5051165;28;20037;-57
2022/06/04 02:56:20;;;;;;;22.60;15.82;;;18.40;77.00;;;14.72;95.02;95579.00;5052430;28;20391;-57
2022/06/04 02:58:52;;;;;;;23.55;16.38;;;18.40;77.00;;;14.72;95.27;95571.75;5052216;28;20138;-56
2022/06/04 03:01:23;;;;;;;20.98;15.25;;;18.40;77.00;;;14.78;95.21;95569.81;5035836;22;20471;-58
2022/06/04 03:03:49;;;;;;;21.98;14.48;;;18.40;77.80;;;14.79;94.66;95561.47;5013538;28;20033;-55
2022/06/04 03:06:31;;;;;;;24.02;14.60;;;18.40;76.80;;;14.80;94.50;95563.06;5011480;28;20026;-58
2022/06/04 03:08:59;;;;;;;27.58;16.35;;;18.40;76.90;;;14.77;94.35;95565.53;5012702;28;20033;-58
2022/06/04 03:11:41;;;;;;;37.17;20.83;;;18.40;76.60;;;14.72;95.03;95579.00;5012770;28;20036;-58
2022/06/04 03:14:07;;;;;;;32.45;21.35;;;18.40;77.70;;;14.70;94.92;95573.16;4996885;28;20095;-56
2022/06/04 03:16:39;;;;;;;34.15;21.30;;;18.40;76.90;;;14.75;94.86;95573.06;5011571;28;20485;-57
2022/06/04 03:19:09;;;;;;;34.45;20.98;;;18.40;77.00;;;14.74;94.92;95577.63;5023615;28;20104;-58
2022/06/04 03:21:37;;;;;;;32.10;19.58;;;18.40;77.00;;;14.79;94.71;95580.25;4994332;28;20058;-57
2022/06/04 03:24:04;;;;;;;23.65;15.75;;;18.40;77.00;;;14.77;94.07;95582.41;5012642;28;20021;-57
2022/06/04 03:26:30;;;;;;;36.70;21.35;;;18.40;76.90;;;14.68;94.21;95570.75;5011513;28;20116;-58
2022/06/04 03:28:56;;;;;;;33.45;20.77;;;18.40;76.80;;;14.63;94.76;95588.78;5011465;28;20114;-58
2022/06/04 03:31:32;;;;;;;34.67;20.55;;;18.40;76.80;;;14.58;94.50;95579.75;5027769;28;20037;-58
2022/06/04 03:34:04;;;;;;;45.22;23.35;;;18.40;77.00;;;14.52;95.13;95578.22;5012654;28;20060;-58
2022/06/04 03:36:29;;;;;;;39.85;21.67;;;18.30;76.80;;;14.55;94.57;95574.97;5010967;28;20029;-55
2022/06/04 03:39:00;;;;;;;46.63;23.55;;;18.30;76.80;;;14.59;94.48;95588.56;5012532;28;20030;-58
2022/06/04 03:41:29;;;;;;;51.75;25.42;;;18.20;76.80;;;14.61;94.63;95586.41;5012459;28;20022;-58
2022/06/04 03:44:01;;;;;;;45.67;23.75;;;18.20;76.80;;;14.59;94.76;95580.53;5011286;28;20022;-56
2022/06/04 03:46:27;;;;;;;54.50;24.10;;;18.30;76.90;;;14.55;94.78;95572.28;5012555;28;20034;-58
2022/06/04 03:48:59;;;;;;;104.57;26.35;;;18.30;76.80;;;14.47;94.94;95562.16;4994771;28;20109;-55
2022/06/04 03:51:28;;;;;;;57.70;26.30;;;18.30;76.90;;;14.59;94.86;95585.91;5011126;28;20030;-58
2022/06/04 03:54:00;;;;;;;53.50;24.92;;;18.30;76.80;;;14.63;94.80;95589.59;5012613;28;20156;-54
2022/06/04 03:56:29;;;;;;;52.55;24.30;;;18.40;76.90;;;14.67;94.75;95582.56;5011265;28;20034;-55
2022/06/04 03:59:00;;;;;;;54.92;24.55;;;18.40;76.70;;;14.64;94.61;95585.84;5012568;28;20030;-57
2022/06/04 04:01:28;;;;;;;48.83;22.73;;;18.40;76.70;;;14.66;94.57;95601.63;5012483;28;20124;-57
2022/06/04 04:03:56;;;;;;;46.88;22.73;;;18.40;76.60;;;14.68;94.51;95618.22;5004554;28;20030;-58
2022/06/04 04:06:27;;;;;;;42.00;22.17;;;18.40;76.90;;;14.69;94.30;95635.88;4995144;28;20033;-55
2022/06/04 04:08:59;;;;;;;47.03;22.25;;;18.40;76.60;;;14.70;94.35;95667.78;5010972;28;20030;-57
2022/06/04 04:11:27;;;;;;;47.77;23.27;;;18.50;76.70;;;14.67;94.56;95683.66;5012359;28;20021;-57
2022/06/04 04:13:54;;;;;;;45.60;21.80;;;18.40;76.60;;;14.69;94.70;95708.28;5030751;28;20021;-55
2022/06/04 04:16:22;;;;;;;46.33;22.30;;;18.50;76.60;;;14.64;94.60;95721.75;5031820;28;20053;-57
2022/06/04 04:18:47;;;;;;;41.03;21.60;;;18.50;76.70;;;14.63;94.94;95752.31;5013593;28;20029;-57
2022/06/04 04:21:21;;;;;;;36.63;20.20;;;18.40;76.80;;;14.60;94.67;95772.44;5010683;28;20029;-58
2022/06/04 04:23:47;;;;;;;34.17;17.70;;;18.40;76.90;;;14.55;94.52;95818.09;4994696;28;20443;-57
2022/06/04 04:26:15;;;;;;;28.77;16.90;;;18.50;76.80;;;14.43;94.93;95844.44;5010788;28;20280;-58
2022/06/04 04:28:41;;;;;;;27.92;16.38;;;18.50;77.00;;;14.48;95.48;95861.28;4994595;28;20026;-57
2022/06/04 04:31:27;;;;;;;26.02;16.85;;;18.40;77.40;;;14.57;95.77;95875.69;5011789;28;20069;-53
2022/06/04 04:33:55;;;;;;;23.70;16.95;;;18.40;77.80;;;14.67;95.73;95869.44;5015343;28;20512;-57
2022/06/04 04:36:22;;;;;;;28.80;16.00;;;18.40;77.70;;;14.73;95.98;95873.66;4957412;28;20476;-57
2022/06/04 04:38:49;;;;;;;21.25;16.05;;;18.40;78.10;;;14.82;95.87;95889.91;4985452;28;20074;-55
2022/06/04 04:41:15;;;;;;;26.52;16.13;;;18.40;78.40;;;14.90;95.83;95889.31;4995725;28;20022;-58
2022/06/04 04:43:44;;;;;;;20.40;16.27;;;18.40;78.50;;;14.94;95.72;95876.13;4994528;28;20026;-59
2022/06/04 04:46:13;;;;;;;21.17;14.77;;;18.40;78.60;;;14.99;95.99;95855.41;4994668;28;20049;-56
2022/06/04 04:48:48;;;;;;;19.88;12.93;;;18.40;78.70;;;15.06;95.54;95851.59;4996062;28;20030;-55
2022/06/04 04:51:24;;;;;;;11.55;7.47;;;18.50;78.70;;;15.04;94.74;95827.72;4994427;28;20022;-57
2022/06/04 04:53:53;;;;;;;15.65;7.00;;;18.50;78.60;;;15.10;94.23;95823.88;4995667;28;20109;-58
2022/06/04 04:56:22;;;;;;;9.77;6.18;;;18.60;78.50;;;15.14;93.93;95830.28;4994319;28;20026;-55
2022/06/04 04:58:48;;;;;;;8.63;6.68;;;18.60;78.40;;;15.17;94.00;95828.94;4995561;28;20040;-57
2022/06/04 05:01:27;;;;;;;8.40;6.70;;;18.60;78.30;;;15.20;93.77;95847.13;4993535;28;20408;-57
2022/06/04 05:03:59;;;;;;;11.63;7.03;;;18.60;78.40;;;15.21;93.73;95857.56;4995017;28;20031;-57
2022/06/04 05:06:25;;;;;;;10.85;6.60;;;18.70;78.30;;;15.27;93.76;95858.31;4994114;28;20070;-56
2022/06/04 15:35:47;;;;;;;13.50;8.93;;;50.70;20.50;;;37.35;24.61;95583.22;5089025;28;20047;-55
2022/06/04 15:38:26;;;;;;;10.95;9.38;;;51.80;19.00;;;37.36;24.59;95584.00;5088669;28;20028;-56
2022/06/04 15:41:22;;;;;;;12.00;10.50;;;52.50;18.20;;;37.33;25.01;95571.03;5073133;28;20475;-54
2022/06/04 15:44:12;;;;;;;12.10;9.65;;;53.10;18.10;;;37.83;24.94;95578.69;5069481;28;20039;-55
2022/06/04 15:46:50;;;;;;;11.70;9.98;;;53.50;17.70;;;38.08;23.87;95557.69;5067943;28;20557;-54
2022/06/04 15:56:30;;;;;;;12.43;9.77;;;54.20;17.20;;;38.01;24.33;95555.91;5089261;28;20047;-55
2022/06/04 15:59:11;;;;;;;12.75;7.32;;;54.20;17.00;;;37.81;24.79;95550.56;5089357;28;20065;-55
2022/06/04 16:02:13;;;;;;;13.30;6.35;;;53.10;17.10;;;37.47;24.93;95549.19;5089329;28;20024;-55
2022/06/04 16:05:20;;;;;;;10.73;6.78;;;52.50;17.40;;;37.65;25.91;95550.66;5073837;28;20040;-57
2022/06/04 16:08:10;;;;;;;11.82;6.70;;;52.50;17.30;;;37.62;26.37;95546.75;5089115;28;20489;-51
2022/06/04 16:10:35;;;;;;;11.05;5.75;;;51.80;17.70;;;37.00;26.94;95555.22;5087981;28;20039;-54
2022/06/04 16:13:46;;;;;;;9.35;6.07;;;51.10;17.90;;;36.75;26.12;95544.00;5087939;28;20028;-52
2022/06/04 16:16:38;;;;;;;13.55;5.82;;;50.90;18.00;;;36.48;27.29;95539.50;5074663;28;20028;-50
2022/06/04 16:19:16;;;;;;;11.38;5.53;;;50.80;18.00;;;36.31;27.86;95546.28;5089045;28;20418;-56
2022/06/04 16:22:00;;;;;;;8.38;4.95;;;50.00;18.40;;;36.13;27.81;95543.91;5088947;28;20020;-54
2022/06/04 16:24:52;;;;;;;10.60;4.50;;;48.90;18.80;;;35.77;27.42;95547.50;5087754;28;20471;-54
2022/06/04 16:27:28;;;;;;;8.65;5.25;;;47.60;19.30;;;35.71;27.52;95549.22;5087449;28;20052;-51
2022/06/04 16:30:26;;;;;;;11.07;5.63;;;48.30;19.30;;;36.10;27.38;95544.78;5087755;28;20028;-53
2022/06/04 16:33:53;;;;;;;8.88;5.72;;;49.30;18.70;;;36.60;26.97;95549.13;5087389;28;20024;-55
2022/06/04 16:36:20;;;;;;;7.97;5.63;;;49.60;18.80;;;36.79;26.25;95553.00;5014371;28;20556;-52
2022/06/04 16:39:00;;;;;;;10.27;5.70;;;49.70;18.60;;;36.63;26.92;95551.03;5001386;28;20485;-53
2022/06/04 16:44:52;;;;;;;7.43;5.63;;;50.10;18.70;;;36.22;27.85;95541.31;5055321;28;20087;-51
2022/06/04 16:47:57;;;;;;;;;;;50.20;18.60;;;35.91;28.57;95535.31;5046650;28;20060;-55
2022/06/04 16:50:27;;;;;;;9.70;5.47;;;49.90;18.80;;;35.90;28.72;95529.00;5075126;28;19995;-53
2022/06/04 16:53:00;;;;;;;8.75;5.00;;;50.10;18.80;;;35.92;28.96;95520.25;5073867;28;20104;-56
2022/06/04 16:55:33;;;;;;;6.00;5.03;;;50.20;18.70;;;35.60;28.80;95515.44;5074793;28;20020;-55
2022/06/04 16:58:01;;;;;;;7.63;4.80;;;50.10;18.40;;;35.28;28.34;95521.63;5074696;28;20509;-55
2022/06/04 17:00:57;;;;;;;10.75;4.40;;;49.40;18.40;;;35.03;30.71;95514.63;5075042;28;20539;-53
2022/06/04 17:04:26;;;;;;;10.43;3.90;;;48.30;19.20;;;34.41;31.55;95516.91;5073188;28;20033;-55
2022/06/04 17:07:23;;;;;;;7.13;3.45;;;47.10;20.20;;;33.95;32.90;95523.94;5032316;28;20039;-54
2022/06/04 17:10:07;;;;;;;9.27;3.22;;;45.90;20.90;;;33.07;33.39;95526.69;5018774;28;20119;-53
2022/06/04 17:13:18;;;;;;;7.30;3.53;;;44.60;21.20;;;32.42;34.81;95518.25;5052365;28;20525;-51
2022/06/04 17:16:05;;;;;;;7.30;3.53;;;42.70;22.70;;;31.51;35.81;95509.06;5064852;28;20036;-52
2022/06/04 17:18:40;;;;;;;9.65;3.20;;;40.80;24.00;;;30.96;37.25;95517.16;5074531;28;20386;-52
2022/06/04 17:21:27;;;;;;;6.88;3.55;;;39.30;25.20;;;30.51;37.67;95525.09;5074205;28;20021;-53
2022/06/04 17:24:06;;;;;;;7.50;3.10;;;38.00;26.30;;;30.18;38.75;95524.31;5072969;28;20031;-50
2022/06/04 17:27:28;;;;;;;6.57;2.83;;;37.00;27.50;;;29.89;40.62;95526.25;5073740;28;20029;-53
2022/06/04 17:30:10;;;;;;;10.50;2.90;;;36.00;28.50;;;29.52;41.33;95536.38;5074111;28;20032;-51
2022/06/04 17:33:21;;;;;;;8.18;2.80;;;35.10;29.60;;;29.13;42.71;95549.94;5072981;28;20048;-51
2022/06/04 17:36:10;;;;;;;10.70;2.83;;;34.50;30.80;;;28.76;43.83;95556.38;5073818;28;21386;-48
2022/06/04 17:38:47;;;;;;;9.45;3.03;;;33.80;31.70;;;28.18;43.67;95546.19;5072577;28;20036;-50
2022/06/04 17:41:46;;;;;;;7.20;2.72;;;33.20;32.40;;;27.72;44.95;95548.47;5072807;28;20024;-47
2022/06/04 17:44:18;;;;;;;5.90;2.75;;;32.60;33.40;;;27.61;47.19;95546.41;5072724;28;20035;-48
2022/06/04 17:46:47;;;;;;;;;;;32.20;34.60;;;27.43;48.90;95540.75;5073018;28;20036;-47
2022/06/04 17:49:15;;;;;;;6.00;2.67;;;31.80;34.00;;;27.12;50.35;95552.06;5072961;28;19999;-47
2022/06/04 17:51:45;;;;;;;9.32;2.85;;;31.60;35.60;;;26.93;49.90;95547.53;5071664;28;20028;-51
2022/06/04 17:54:13;;;;;;;11.23;4.75;;;31.30;36.80;;;26.72;50.01;95546.09;5072554;28;20032;-51
2022/06/04 17:56:39;;;;;;;9.70;2.65;;;31.00;37.40;;;26.60;51.48;95540.06;5073296;28;20035;-49
2022/06/04 17:59:11;;;;;;;5.57;2.88;;;30.80;38.20;;;26.40;52.08;95544.81;5073560;28;20108;-50
2022/06/04 18:01:40;;;;;;;11.00;3.15;;;30.50;39.10;;;26.19;53.17;95551.50;5055664;28;20111;-54
2022/06/04 18:04:07;;;;;;;7.05;2.75;;;30.30;39.70;;;25.97;52.75;95546.88;5055395;28;20028;-52
2022/06/04 18:06:34;;;;;;;8.77;3.63;;;30.10;40.10;;;25.74;51.65;95547.63;5054961;28;20094;-49
2022/06/04 18:09:00;;;;;;;9.18;3.55;;;29.90;40.30;;;25.47;51.11;95551.41;5071741;28;20498;-55
2022/06/04 18:11:25;;;;;;;7.47;2.50;;;29.70;40.40;;;25.30;50.42;95547.97;5055170;28;20071;-51
2022/06/04 18:13:54;;;;;;;7.57;2.50;;;29.50;40.50;;;25.24;51.15;95540.47;5073197;28;20037;-53
2022/06/04 18:16:20;;;;;;;9.52;2.78;;;29.30;40.80;;;25.12;51.01;95544.91;5072969;28;20055;-53
2022/06/04 18:18:48;;;;;;;4.03;2.00;;;29.20;41.00;;;25.10;50.92;95554.53;5073071;28;20066;-52
2022/06/04 18:21:20;;;;;;;6.25;2.20;;;29.00;41.10;;;25.03;51.55;95555.19;5072892;28;20417;-50
2022/06/04 18:23:49;;;;;;;8.05;2.70;;;28.90;41.40;;;24.94;51.34;95546.44;5088576;28;20039;-52
2022/06/04 18:26:19;;;;;;;10.77;2.70;;;28.80;41.50;;;24.80;51.33;95546.16;5073050;28;20029;-50
2022/06/04 18:28:51;;;;;;;6.43;3.10;;;28.70;41.80;;;24.74;51.17;95542.13;5071551;28;20072;-51
2022/06/04 18:31:23;;;;;;;7.07;2.70;;;28.50;41.90;;;24.67;52.34;95535.38;5071537;28;20074;-50
2022/06/04 18:33:51;;;;;;;7.90;2.23;;;28.50;42.40;;;24.54;51.96;95542.09;5071652;28;20394;-51
2022/06/04 18:36:18;;;;;;;10.85;2.47;;;28.30;42.50;;;24.54;52.34;95536.66;5072539;28;20036;-49
2022/06/04 18:38:53;;;;;;;7.20;2.58;;;28.30;42.90;;;24.51;52.46;95533.84;5072795;28;20032;-56
2022/06/04 18:41:22;;;;;;;7.10;2.42;;;28.10;43.10;;;24.44;52.83;95529.84;5072912;28;20063;-54
2022/06/04 18:54:58;;;;;;;6.47;2.47;;;27.60;44.60;;;23.92;53.87;95524.69;5071468;28;20498;-53
2022/06/04 18:57:25;;;;;;;10.25;2.60;;;27.40;44.80;;;23.84;54.49;95525.63;5072479;28;20044;-51
2022/06/04 18:59:54;;;;;;;7.00;2.20;;;27.40;45.00;;;23.72;54.54;95516.44;5054735;28;20329;-51
2022/06/04 19:02:21;;;;;;;9.23;2.30;;;27.30;45.30;;;23.71;54.87;95522.22;5071168;28;20047;-51
2022/06/04 19:04:48;;;;;;;5.63;2.30;;;27.20;45.60;;;23.67;55.40;95529.47;5071290;28;20028;-54
2022/06/04 19:10:07;;;;;;;6.57;2.08;;;27.00;46.20;;;23.49;55.97;95524.34;5072546;28;20035;-49
2022/06/04 19:15:40;;;;;;;5.70;2.33;;;26.80;46.70;;;23.41;56.21;95521.78;5030013;28;20571;-54
2022/06/04 19:18:09;;;;;;;5.05;2.17;;;26.70;46.90;;;23.33;56.13;95518.88;5065140;28;20483;-49
2022/06/04 19:26:18;;;;;;;4.93;2.05;;;26.50;47.50;;;23.04;57.34;95520.06;5071196;28;20042;-53
2022/06/04 19:28:44;;;;;;;6.32;2.67;;;26.40;47.80;;;23.00;57.80;95529.22;5053898;28;20439;-50
2022/06/04 19:31:11;;;;;;;3.70;2.38;;;26.30;48.10;;;22.98;57.63;95528.78;5070889;28;20091;-51
2022/06/04 19:33:37;;;;;;;5.72;2.50;;;26.30;48.40;;;22.95;57.76;95532.97;5070976;28;20024;-51
2022/06/04 19:36:12;;;;;;;6.30;2.60;;;26.20;48.60;;;22.89;58.27;95531.63;5070772;28;20031;-54
2022/06/04 19:38:41;;;;;;;4.03;2.17;;;26.20;48.80;;;22.77;58.67;95527.00;5054103;28;20063;-53
2022/06/04 19:41:10;;;;;;;4.20;2.47;;;26.10;49.10;;;22.73;58.91;95534.25;5070799;28;20039;-52
2022/06/04 19:43:40;;;;;;;7.88;2.40;;;26.00;49.30;;;22.71;59.32;95541.94;5070842;28;20108;-50
2022/06/04 19:46:12;;;;;;;6.10;2.58;;;25.90;49.50;;;22.67;59.45;95541.06;5054016;28;20315;-54
2022/06/04 19:48:40;;;;;;;4.10;2.20;;;25.90;49.70;;;22.57;59.35;95523.34;5071984;28;20445;-54
2022/06/04 19:51:07;;;;;;;6.95;2.60;;;25.80;49.90;;;22.62;59.49;95525.00;5053990;28;20025;-52
2022/06/04 19:56:21;;;;;;;3.78;2.60;;;25.70;50.10;;;22.46;59.97;95518.72;5071938;28;20031;-49
2022/06/04 19:58:49;;;;;;;5.28;2.80;;;25.70;50.20;;;22.42;60.26;95517.81;5069788;28;20032;-53
2022/06/04 20:01:22;;;;;;;4.72;2.50;;;25.60;50.40;;;22.39;60.31;95517.38;5071579;28;20039;-56
2022/06/04 20:03:50;;;;;;;5.55;2.45;;;25.60;50.70;;;22.31;60.72;95521.00;5049080;28;20074;-49
2022/06/04 20:06:16;;;;;;;5.10;3.28;;;25.50;50.80;;;22.25;60.90;95519.66;5059847;28;20518;-49
2022/06/04 20:08:44;;;;;;;5.45;2.67;;;25.50;51.00;;;22.20;61.11;95511.75;5045812;28;20181;-51
2022/06/04 20:11:14;;;;;;;3.78;2.47;;;25.40;51.10;;;22.11;61.52;95519.97;5057564;28;20112;-53
2022/06/04 20:13:45;;;;;;;3.20;2.83;;;25.40;51.60;;;22.08;61.68;95519.84;5053032;28;20025;-49
2022/06/04 20:16:12;;;;;;;3.38;2.58;;;25.30;51.70;;;21.99;62.34;95521.88;5052695;28;20499;-51
2022/06/04 20:18:38;;;;;;;4.75;2.95;;;25.30;51.90;;;21.97;62.28;95530.38;5059072;28;20119;-49
2022/06/04 20:21:19;;;;;;;10.73;2.72;;;25.20;52.20;;;21.94;62.56;95531.03;5060531;28;20032;-49
2022/06/04 20:23:49;;;;;;;5.50;2.67;;;25.20;52.40;;;21.88;62.68;95522.34;5048868;28;20039;-51
2022/06/04 20:26:17;;;;;;;6.13;3.22;;;25.10;52.40;;;21.81;62.85;95524.81;5053850;28;20491;-49
2022/06/04 20:28:43;;;;;;;5.07;2.63;;;25.10;52.60;;;21.82;63.02;95525.63;5069216;28;20048;-52
2022/06/04 20:31:15;;;;;;;4.50;2.83;;;25.10;52.80;;;21.75;63.40;95520.75;5054091;28;20025;-49
2022/06/04 20:33:41;;;;;;;5.10;2.63;;;25.00;52.90;;;21.69;63.23;95513.97;5036642;28;20048;-55
2022/06/04 20:36:13;;;;;;;4.53;2.97;;;25.00;53.00;;;21.65;63.77;95527.38;5053957;28;20020;-51
2022/06/04 20:38:44;;;;;;;5.32;3.30;;;24.90;53.30;;;21.60;63.53;95529.53;5054114;28;20502;-49
2022/06/04 20:41:18;;;;;;;5.10;2.75;;;24.90;53.30;;;21.62;63.32;95527.25;5052731;28;20128;-50
2022/06/04 20:43:47;;;;;;;4.75;3.08;;;24.90;53.50;;;21.56;63.48;95537.56;5054002;28;20032;-52
2022/06/04 20:46:17;;;;;;;3.90;3.00;;;24.80;53.60;;;21.56;63.67;95545.69;5052592;28;20044;-53
2022/06/04 20:48:44;;;;;;;4.90;2.80;;;24.80;53.70;;;21.54;63.61;95541.72;5052658;28;20057;-52
2022/06/04 20:51:20;;;;;;;5.15;3.20;;;24.70;53.70;;;21.44;63.73;95543.72;5052671;28;20530;-50
2022/06/04 20:53:48;;;;;;;5.50;3.00;;;24.70;53.80;;;21.45;63.83;95542.59;5052407;28;20506;-49
2022/06/04 20:56:28;;;;;;;3.95;2.83;;;24.70;53.90;;;21.42;63.88;95539.75;5056475;28;20495;-50
2022/06/04 20:58:54;;;;;;;3.42;3.10;;;24.70;54.10;;;21.37;64.20;95521.81;5052682;28;20037;-51
2022/06/04 21:01:24;;;;;;;4.90;3.00;;;24.70;54.10;;;21.32;64.34;95524.69;5052422;28;20033;-53
2022/06/04 21:03:50;;;;;;;3.22;2.65;;;24.60;54.80;;;21.27;64.38;95525.69;5053568;28;20431;-49
2022/06/04 21:06:23;;;;;;;3.95;3.08;;;24.60;54.10;;;21.21;64.88;95523.53;5054832;22;20049;-52
2022/06/04 21:08:49;;;;;;;6.40;2.97;;;24.50;54.40;;;21.19;64.42;95525.78;5028319;28;20031;-51
2022/06/04 21:11:17;;;;;;;5.85;3.10;;;24.50;54.40;;;21.16;64.56;95512.91;5030129;28;20022;-52
2022/06/04 21:13:49;;;;;;;4.93;2.97;;;24.40;54.40;;;21.18;64.50;95516.84;5020553;28;20030;-50
2022/06/04 21:16:26;;;;;;;4.57;3.13;;;24.40;54.50;;;21.14;64.69;95504.31;5013695;28;20144;-52
2022/06/04 21:18:54;;;;;;;4.47;2.95;;;24.40;54.60;;;21.09;64.55;95504.53;5015545;28;20037;-53
2022/06/04 21:21:33;;;;;;;4.95;3.05;;;24.40;54.60;;;21.03;64.94;95488.50;4998313;28;20030;-51
2022/06/04 21:24:01;;;;;;;4.45;2.88;;;24.30;54.80;;;21.02;64.94;95492.31;4996517;28;20261;-50
2022/06/04 21:26:34;;;;;;;3.72;3.15;;;24.30;54.80;;;20.95;64.88;95492.06;5012277;28;20054;-53
2022/06/04 21:29:01;;;;;;;5.65;2.70;;;24.30;54.90;;;20.97;65.00;95494.47;5014848;28;20072;-53
2022/06/04 21:31:29;;;;;;;5.50;3.33;;;24.20;54.90;;;20.95;65.24;95499.41;5012002;28;20040;-52
2022/06/04 21:33:58;;;;;;;5.68;3.22;;;24.20;55.00;;;20.90;65.46;95496.88;5013498;28;20097;-52
2022/06/04 21:39:27;;;;;;;6.40;3.20;;;24.10;55.20;;;20.83;65.65;95502.84;5012697;28;20037;-53
2022/06/04 21:41:54;;;;;;;6.90;3.22;;;24.10;55.40;;;20.78;65.80;95494.94;5013032;28;20026;-55
2022/06/04 21:44:22;;;;;;;3.85;3.08;;;24.00;55.30;;;20.78;65.79;95497.66;5013852;28;20506;-50
2022/06/04 21:46:53;;;;;;;4.78;3.30;;;24.00;55.50;;;20.84;65.52;95506.34;5019552;28;20400;-49
2022/06/04 21:49:21;;;;;;;6.82;3.17;;;24.00;55.60;;;20.85;65.37;95497.13;5013281;28;20030;-54
2022/06/04 21:51:51;;;;;;;4.47;3.53;;;24.00;55.60;;;20.84;65.53;95503.63;4995326;28;20444;-52
2022/06/04 21:54:16;;;;;;;5.68;2.92;;;24.00;55.70;;;20.78;65.77;95505.78;5011829;28;20029;-50
2022/06/04 21:56:42;;;;;;;6.60;3.53;;;23.90;55.60;;;20.77;65.66;95507.66;5012859;28;20037;-49
2022/06/04 21:59:17;;;;;;;4.85;3.40;;;23.90;55.70;;;20.77;65.82;95496.06;5010649;28;20046;-54